createdAt,value
2018-11-27T00:00:29.956Z,14.87
2018-11-27T00:03:03.434Z,12.83
2018-11-27T00:05:32.875Z,14.60
2018-11-27T00:08:01.517Z,16.83
2018-11-27T00:10:31.173Z,15.17
2018-11-27T00:12:59.814Z,12.53
2018-11-27T00:15:28.500Z,13.60
2018-11-27T00:17:57.320Z,14.60
2018-11-27T00:20:26.408Z,14.87
2018-11-27T00:22:56.774Z,15.73
2018-11-27T00:25:26.822Z,14.83
2018-11-27T00:27:56.250Z,13.30
2018-11-27T00:30:25.853Z,14.80
2018-11-27T00:32:55.067Z,16.90
2018-11-27T00:35:24.000Z,13.23
2018-11-27T00:37:52.606Z,14.07
2018-11-27T00:40:23.178Z,16.37
2018-11-27T00:42:52.579Z,13.40
2018-11-27T00:45:22.263Z,16.77
2018-11-27T00:47:52.012Z,15.57
2018-11-27T00:50:23.950Z,16.80
2018-11-27T00:52:52.558Z,17.30
2018-11-27T00:55:21.726Z,19.83
2018-11-27T00:57:51.288Z,15.93
2018-11-27T01:00:21.952Z,16.53
2018-11-27T01:02:50.628Z,18.70
2018-11-27T01:05:22.531Z,15.27
2018-11-27T01:07:51.195Z,18.73
2018-11-27T01:10:21.914Z,21.60
2018-11-27T01:12:50.573Z,18.77
2018-11-27T01:15:19.295Z,16.40
2018-11-27T01:17:48.980Z,17.97
2018-11-27T01:20:20.535Z,15.87
2018-11-27T01:22:49.243Z,16.93
2018-11-27T01:25:17.903Z,15.77
2018-11-27T01:27:46.520Z,17.33
2018-11-27T01:30:17.734Z,18.17
2018-11-27T01:32:46.584Z,18.30
2018-11-27T01:35:17.105Z,17.63
2018-11-27T01:37:45.953Z,19.67
2018-11-27T01:40:18.396Z,18.93
2018-11-27T01:42:47.961Z,17.60
2018-11-27T01:45:17.511Z,17.07
2018-11-27T01:47:46.228Z,18.20
2018-11-27T01:50:15.659Z,17.70
2018-11-27T01:52:44.464Z,17.47
2018-11-27T01:55:15.087Z,17.63
2018-11-27T01:57:43.996Z,19.30
2018-11-27T02:00:25.390Z,19.87
2018-11-27T02:02:58.187Z,17.30
2018-11-27T02:05:27.851Z,17.03
2018-11-27T02:07:56.504Z,21.23
2018-11-27T02:10:25.233Z,19.37
2018-11-27T02:12:54.804Z,20.47
2018-11-27T02:15:25.438Z,17.13
2018-11-27T02:17:54.054Z,19.00
2018-11-27T02:20:22.683Z,17.37
2018-11-27T02:22:51.473Z,18.83
2018-11-27T02:25:22.210Z,20.17
2018-11-27T02:27:50.894Z,19.90
2018-11-27T02:30:20.796Z,18.70
2018-11-27T02:32:49.465Z,16.93
2018-11-27T02:35:18.948Z,14.97
2018-11-27T02:37:48.506Z,16.73
2018-11-27T02:40:17.784Z,19.83
2018-11-27T02:42:46.515Z,16.97
2018-11-27T02:45:16.631Z,18.97
2018-11-27T02:47:45.730Z,18.93
2018-11-27T02:50:15.497Z,18.73
2018-11-27T02:52:44.116Z,20.67
2018-11-27T02:55:14.660Z,20.57
2018-11-27T02:57:43.415Z,20.87
2018-11-27T03:00:14.955Z,19.10
2018-11-27T03:02:43.666Z,18.40
2018-11-27T03:05:17.309Z,18.17
2018-11-27T03:07:45.991Z,19.77
2018-11-27T03:10:15.381Z,19.00
2018-11-27T03:12:43.989Z,19.17
2018-11-27T03:15:14.447Z,17.77
2018-11-27T03:17:43.817Z,21.27
2018-11-27T03:20:15.690Z,16.53
2018-11-27T03:22:44.356Z,18.10
2018-11-27T03:25:14.909Z,18.07
2018-11-27T03:27:43.973Z,17.40
2018-11-27T03:30:13.601Z,18.30
2018-11-27T03:32:42.499Z,18.47
2018-11-27T03:35:14.913Z,18.63
2018-11-27T03:37:44.302Z,17.27
2018-11-27T03:40:15.840Z,17.83
2018-11-27T03:42:44.525Z,21.43
2018-11-27T03:45:13.964Z,18.90
2018-11-27T03:47:42.668Z,17.23
2018-11-27T03:50:17.253Z,17.63
2018-11-27T03:52:45.851Z,20.27
2018-11-27T03:55:14.591Z,18.27
2018-11-27T03:57:43.328Z,19.50
2018-11-27T04:00:27.333Z,18.23
2018-11-27T04:03:01.473Z,16.17
2018-11-27T04:05:30.882Z,19.07
2018-11-27T04:08:00.236Z,19.80
2018-11-27T04:10:29.550Z,18.73
2018-11-27T04:13:00.349Z,20.73
2018-11-27T04:15:29.553Z,18.87
2018-11-27T04:17:58.759Z,20.83
2018-11-27T04:20:27.616Z,18.57
2018-11-27T04:22:57.762Z,18.80
2018-11-27T04:25:26.377Z,18.77
2018-11-27T04:27:55.099Z,16.83
2018-11-27T04:30:23.692Z,20.40
2018-11-27T04:32:52.341Z,21.30
2018-11-27T04:35:21.718Z,21.27
2018-11-27T04:37:50.420Z,20.70
2018-11-27T04:40:20.844Z,18.97
2018-11-27T04:42:49.553Z,17.67
2018-11-27T04:45:23.677Z,20.07
2018-11-27T04:47:52.395Z,20.47
2018-11-27T04:50:21.311Z,22.70
2018-11-27T04:52:50.129Z,22.20
2018-11-27T04:55:19.963Z,20.27
2018-11-27T04:57:49.190Z,19.03
2018-11-27T05:00:18.777Z,21.30
2018-11-27T05:02:47.450Z,22.03
2018-11-27T05:05:16.397Z,23.22
2018-11-27T05:07:45.244Z,22.45
2018-11-27T05:10:15.742Z,20.67
2018-11-27T05:12:44.601Z,21.33
2018-11-27T05:15:17.034Z,17.93
2018-11-27T05:17:48.181Z,19.70
2018-11-27T05:20:15.221Z,19.23
2018-11-27T05:22:43.867Z,19.17
2018-11-27T05:25:16.342Z,19.63
2018-11-27T05:27:48.732Z,22.97
2018-11-27T05:30:18.367Z,21.90
2018-11-27T05:32:46.946Z,20.93
2018-11-27T05:35:17.396Z,21.73
2018-11-27T05:37:47.059Z,24.75
2018-11-27T05:40:16.705Z,22.90
2018-11-27T05:42:45.583Z,19.80
2018-11-27T05:45:15.478Z,20.80
2018-11-27T05:47:44.320Z,22.57
2018-11-27T05:50:14.030Z,23.40
2018-11-27T05:52:42.620Z,21.23
2018-11-27T05:55:11.940Z,22.57
2018-11-27T05:57:40.824Z,19.93
2018-11-27T06:00:18.880Z,23.35
2018-11-27T06:02:49.193Z,23.60
2018-11-27T06:05:20.567Z,21.83
2018-11-27T06:07:49.594Z,22.63
2018-11-27T06:10:20.788Z,21.63
2018-11-27T06:12:50.735Z,22.20
2018-11-27T06:15:20.864Z,20.83
2018-11-27T06:17:51.443Z,24.10
2018-11-27T06:20:24.056Z,23.27
2018-11-27T06:22:53.247Z,22.17
2018-11-27T06:25:25.482Z,22.90
2018-11-27T06:27:57.666Z,23.73
2018-11-27T06:30:28.792Z,19.77
2018-11-27T06:32:58.253Z,20.90
2018-11-27T06:35:30.224Z,22.83
2018-11-27T06:38:00.401Z,21.07
2018-11-27T06:40:30.920Z,21.33
2018-11-27T06:43:03.012Z,25.93
2018-11-27T06:45:32.383Z,21.35
2018-11-27T06:48:02.850Z,22.17
2018-11-27T06:50:34.730Z,23.57
2018-11-27T06:53:03.620Z,22.73
2018-11-27T06:55:32.366Z,23.47
2018-11-27T06:58:14.258Z,24.53
2018-11-27T07:00:42.957Z,27.53
2018-11-27T07:03:13.054Z,20.27
2018-11-27T07:05:41.679Z,23.73
2018-11-27T07:08:10.482Z,27.97
2018-11-27T07:10:40.672Z,24.50
2018-11-27T07:13:14.515Z,21.83
2018-11-27T07:15:43.203Z,23.53
2018-11-27T07:18:11.842Z,22.23
2018-11-27T07:20:40.552Z,21.63
2018-11-27T07:23:09.190Z,24.30
2018-11-27T07:25:38.227Z,25.33
2018-11-27T07:28:07.117Z,26.77
2018-11-27T07:30:36.270Z,22.77
2018-11-27T07:33:05.546Z,22.33
2018-11-27T07:35:34.568Z,20.60
2018-11-27T07:38:03.317Z,23.77
2018-11-27T07:40:32.159Z,20.17
2018-11-27T07:43:05.398Z,20.07
2018-11-27T07:45:34.171Z,20.97
2018-11-27T07:48:02.947Z,22.50
2018-11-27T07:50:31.749Z,21.40
2018-11-27T07:53:00.522Z,23.37
2018-11-27T07:55:29.210Z,21.60
2018-11-27T07:57:57.858Z,22.00
2018-11-27T08:00:27.723Z,25.77
2018-11-27T08:02:57.371Z,23.37
2018-11-27T08:05:34.287Z,24.90
2018-11-27T08:08:03.034Z,25.37
2018-11-27T08:10:32.433Z,27.00
2018-11-27T08:13:01.147Z,27.43
2018-11-27T08:15:30.731Z,24.27
2018-11-27T08:17:59.338Z,27.03
2018-11-27T08:20:30.180Z,22.70
2018-11-27T08:22:59.075Z,27.90
2018-11-27T08:25:27.892Z,25.67
2018-11-27T08:27:56.560Z,28.60
2018-11-27T08:30:25.379Z,26.27
2018-11-27T08:32:54.659Z,25.23
2018-11-27T08:35:25.354Z,25.27
2018-11-27T08:37:54.868Z,22.77
2018-11-27T08:40:24.446Z,21.17
2018-11-27T08:42:53.164Z,23.70
2018-11-27T08:45:23.009Z,20.30
2018-11-27T08:47:52.491Z,23.53
2018-11-27T08:50:23.017Z,20.60
2018-11-27T08:52:54.620Z,21.33
2018-11-27T08:55:27.810Z,23.43
2018-11-27T08:57:56.668Z,24.67
2018-11-27T09:00:26.059Z,24.90
2018-11-27T09:02:54.903Z,21.47
2018-11-27T09:05:23.471Z,22.20
2018-11-27T09:07:52.209Z,19.23
2018-11-27T09:10:22.117Z,23.30
2018-11-27T09:12:50.684Z,20.17
2018-11-27T09:15:20.412Z,21.73
2018-11-27T09:17:55.114Z,25.07
2018-11-27T09:20:23.802Z,19.93
2018-11-27T09:22:52.967Z,22.13
2018-11-27T09:25:21.661Z,17.90
2018-11-27T09:27:50.385Z,21.37
2018-11-27T09:30:24.130Z,18.27
2018-11-27T09:32:52.971Z,18.17
2018-11-27T09:35:21.504Z,20.90
2018-11-27T09:37:50.099Z,21.17
2018-11-27T09:40:19.591Z,18.70
2018-11-27T09:42:48.204Z,21.70
2018-11-27T09:45:24.418Z,20.53
2018-11-27T09:47:55.134Z,21.77
2018-11-27T09:50:24.702Z,21.70
2018-11-27T09:52:53.421Z,18.30
2018-11-27T09:55:24.274Z,20.07
2018-11-27T09:57:58.825Z,23.70
2018-11-27T10:00:23.404Z,20.83
2018-11-27T10:02:54.285Z,22.73
2018-11-27T10:05:23.143Z,19.97
2018-11-27T10:07:52.428Z,22.23
2018-11-27T10:10:23.108Z,19.43
2018-11-27T10:12:52.190Z,19.50
2018-11-27T10:15:22.892Z,19.10
2018-11-27T10:17:56.604Z,22.07
2018-11-27T10:20:27.429Z,19.33
2018-11-27T10:22:56.112Z,25.00
2018-11-27T10:25:24.815Z,23.67
2018-11-27T10:27:53.455Z,24.43
2018-11-27T10:30:23.324Z,23.53
2018-11-27T10:32:53.539Z,25.07
2018-11-27T10:35:25.337Z,26.50
2018-11-27T10:37:54.153Z,22.53
2018-11-27T10:40:22.804Z,22.93
2018-11-27T10:42:51.605Z,23.87
2018-11-27T10:45:21.182Z,22.97
2018-11-27T10:47:50.844Z,26.20
2018-11-27T10:50:19.767Z,22.43
2018-11-27T10:52:49.803Z,24.27
2018-11-27T10:55:19.382Z,22.07
2018-11-27T10:57:47.985Z,22.90
2018-11-27T11:00:24.761Z,25.37
2018-11-27T11:02:58.576Z,21.90
2018-11-27T11:05:28.908Z,25.50
2018-11-27T11:07:57.815Z,23.23
2018-11-27T11:10:26.627Z,26.47
2018-11-27T11:12:55.591Z,21.20
2018-11-27T11:15:24.357Z,22.40
2018-11-27T11:17:53.020Z,24.13
2018-11-27T11:20:22.121Z,23.40
2018-11-27T11:22:50.831Z,23.40
2018-11-27T11:25:20.535Z,26.23
2018-11-27T11:27:51.248Z,27.10
2018-11-27T11:30:20.966Z,24.33
2018-11-27T11:32:49.889Z,26.93
2018-11-27T11:35:18.534Z,24.27
2018-11-27T11:37:47.309Z,25.03
2018-11-27T11:40:18.156Z,22.90
2018-11-27T11:42:47.147Z,25.57
2018-11-27T11:45:15.782Z,28.20
2018-11-27T11:47:44.390Z,25.40
2018-11-27T11:50:20.682Z,25.03
2018-11-27T11:52:57.938Z,26.40
2018-11-27T11:55:26.620Z,26.63
2018-11-27T11:57:55.259Z,26.23
2018-11-27T12:00:32.712Z,23.43
2018-11-27T12:03:01.584Z,25.77
2018-11-27T12:05:30.357Z,27.50
2018-11-27T12:07:58.959Z,24.33
2018-11-27T12:10:27.648Z,24.50
2018-11-27T12:12:56.190Z,25.90
2018-11-27T12:15:24.799Z,23.53
2018-11-27T12:17:53.460Z,26.40
2018-11-27T12:20:22.072Z,28.70
2018-11-27T12:22:52.803Z,24.73
2018-11-27T12:25:24.197Z,26.87
2018-11-27T12:27:50.413Z,23.63
2018-11-27T12:30:20.346Z,22.97
2018-11-27T12:32:49.112Z,25.10
2018-11-27T12:35:18.094Z,24.57
2018-11-27T12:37:46.959Z,24.43
2018-11-27T12:40:21.456Z,23.63
2018-11-27T12:42:50.346Z,25.20
2018-11-27T12:45:21.879Z,24.80
2018-11-27T12:47:50.688Z,26.00
2018-11-27T12:50:22.814Z,26.03
2018-11-27T12:52:51.549Z,26.07
2018-11-27T12:55:22.311Z,27.70
2018-11-27T12:57:51.396Z,28.13
2018-11-27T13:00:23.654Z,24.87
2018-11-27T13:02:52.443Z,25.30
2018-11-27T13:05:26.276Z,23.63
2018-11-27T13:08:00.242Z,26.50
2018-11-27T13:10:29.086Z,25.40
2018-11-27T13:12:58.790Z,25.43
2018-11-27T13:15:27.503Z,26.83
2018-11-27T13:17:56.196Z,27.37
2018-11-27T13:20:25.070Z,23.27
2018-11-27T13:22:53.729Z,24.53
2018-11-27T13:25:23.893Z,28.60
2018-11-27T13:27:53.737Z,23.63
2018-11-27T13:31:27.482Z,28.67
2018-11-27T13:34:02.029Z,25.77
2018-11-27T13:36:30.794Z,26.80
2018-11-27T13:39:10.447Z,29.40
2018-11-27T13:41:39.194Z,30.43
2018-11-27T13:44:08.773Z,26.23
2018-11-27T13:46:37.622Z,24.33
2018-11-27T13:49:06.338Z,30.70
2018-11-27T13:51:35.091Z,32.33
2018-11-27T13:54:03.828Z,26.70
2018-11-27T13:56:32.494Z,36.47
2018-11-27T13:59:01.198Z,36.40
2018-11-27T14:01:29.913Z,28.70
2018-11-27T14:03:58.668Z,31.30
2018-11-27T14:06:27.338Z,29.63
2018-11-27T14:08:56.019Z,33.83
2018-11-27T14:11:24.841Z,30.40
2018-11-27T14:13:53.486Z,31.60
2018-11-27T14:16:22.382Z,29.47
2018-11-27T14:18:51.275Z,33.30
2018-11-27T14:21:20.137Z,30.60
2018-11-27T14:23:48.889Z,31.97
2018-11-27T14:26:17.554Z,30.63
2018-11-27T14:28:46.211Z,31.83
2018-11-27T14:31:14.868Z,28.23
2018-11-27T14:33:43.613Z,32.67
2018-11-27T14:36:12.280Z,31.37
2018-11-27T14:38:41.519Z,34.07
2018-11-27T14:41:10.155Z,29.93
2018-11-27T14:43:38.920Z,30.43
2018-11-27T14:46:08.543Z,34.10
2018-11-27T14:48:37.132Z,32.93
2018-11-27T14:51:05.869Z,29.57
2018-11-27T14:53:34.491Z,30.50
2018-11-27T14:56:03.233Z,32.97
2018-11-27T14:58:31.880Z,28.77
2018-11-27T15:01:00.556Z,34.67
2018-11-27T15:03:29.175Z,29.33
2018-11-27T15:05:57.818Z,31.53
2018-11-27T15:08:26.533Z,27.83
2018-11-27T15:10:55.147Z,30.37
2018-11-27T15:13:23.879Z,30.53
2018-11-27T15:15:52.534Z,31.13
2018-11-27T15:18:21.206Z,31.43
2018-11-27T15:20:49.858Z,31.27
2018-11-27T15:23:18.457Z,30.40
2018-11-27T15:25:47.365Z,28.30
2018-11-27T15:28:17.192Z,28.80
2018-11-27T15:30:45.958Z,30.83
2018-11-27T15:33:18.636Z,30.03
2018-11-27T15:35:43.354Z,31.73
2018-11-27T15:38:12.015Z,34.10
2018-11-27T15:40:40.699Z,30.23
2018-11-27T15:43:10.425Z,31.80
2018-11-27T15:45:39.110Z,30.67
2018-11-27T15:48:08.818Z,34.20
2018-11-27T15:50:37.498Z,34.77
2018-11-27T15:53:06.367Z,33.90
2018-11-27T15:55:36.386Z,28.80
2018-11-27T15:58:13.059Z,34.00
2018-11-27T16:00:42.556Z,35.27
2018-11-27T16:03:11.583Z,33.40
2018-11-27T16:05:43.267Z,32.97
2018-11-27T16:08:11.883Z,37.73
2018-11-27T16:10:40.488Z,37.00
2018-11-27T16:13:09.087Z,38.57
2018-11-27T16:15:37.972Z,46.58
2018-11-27T16:18:08.082Z,35.50
2018-11-27T16:20:36.792Z,37.23
2018-11-27T16:23:05.507Z,44.47
2018-11-27T16:25:34.207Z,35.13
2018-11-27T16:28:02.770Z,38.37
2018-11-27T16:30:31.799Z,39.43
2018-11-27T16:33:00.458Z,40.50
2018-11-27T16:35:29.233Z,40.00
2018-11-27T16:38:00.097Z,39.70
2018-11-27T16:40:30.396Z,37.03
2018-11-27T16:42:59.023Z,39.15
2018-11-27T16:45:27.661Z,39.77
2018-11-27T16:48:00.112Z,39.93
2018-11-27T16:50:29.626Z,45.37
2018-11-27T16:53:04.163Z,39.33
2018-11-27T16:55:33.713Z,37.93
2018-11-27T16:58:02.689Z,41.58
2018-11-27T17:00:32.925Z,34.20
2018-11-27T17:03:02.499Z,35.97
2018-11-27T17:05:47.203Z,29.47
2018-11-27T17:08:15.774Z,40.17
2018-11-27T17:10:45.004Z,38.93
2018-11-27T17:13:14.856Z,40.43
2018-11-27T17:15:43.450Z,38.53
2018-11-27T17:18:12.618Z,38.13
2018-11-27T17:20:43.872Z,46.30
2018-11-27T17:26:07.609Z,48.47
2018-11-27T17:28:37.361Z,51.67
2018-11-27T17:31:13.361Z,58.63
2018-11-27T17:33:50.159Z,56.17
2018-11-27T17:36:22.770Z,50.07
2018-11-27T17:38:51.386Z,44.70
2018-11-27T17:41:20.123Z,46.58
2018-11-27T17:43:48.707Z,46.88
2018-11-27T17:46:17.304Z,47.53
2018-11-27T17:48:45.871Z,41.40
2018-11-27T17:51:14.838Z,44.27
2018-11-27T17:53:43.764Z,42.90
2018-11-27T17:56:12.498Z,47.63
2018-11-27T17:58:41.332Z,41.07
2018-11-27T18:01:11.295Z,42.13
2018-11-27T18:03:40.019Z,42.43
2018-11-27T18:06:08.620Z,41.50
2018-11-27T18:08:37.227Z,40.03
2018-11-27T18:11:05.962Z,41.63
2018-11-27T18:13:35.288Z,48.50
2018-11-27T18:16:03.874Z,42.67
2018-11-27T18:18:32.456Z,42.13
2018-11-27T18:21:01.335Z,44.70
2018-11-27T18:23:30.089Z,43.33
2018-11-27T18:39:15.604Z,39.47
2018-11-27T18:41:44.336Z,38.50
2018-11-27T18:44:13.033Z,37.70
2018-11-27T18:46:41.852Z,41.37
2018-11-27T18:49:10.557Z,39.27
2018-11-27T18:51:39.409Z,44.33
2018-11-27T18:54:08.177Z,39.87
2018-11-27T18:56:36.856Z,39.10
2018-11-27T18:59:05.554Z,42.83
2018-11-27T19:01:34.289Z,44.23
2018-11-27T19:04:03.130Z,40.33
2018-11-27T19:06:31.736Z,43.10
2018-11-27T19:09:00.603Z,38.70
2018-11-27T19:11:29.400Z,41.23
2018-11-27T19:13:58.062Z,37.03
2018-11-27T19:16:26.949Z,38.10
2018-11-27T19:18:55.604Z,40.97
2018-11-27T19:21:24.289Z,37.60
2018-11-27T19:23:52.947Z,39.37
2018-11-27T19:26:21.594Z,36.87
2018-11-27T19:28:50.284Z,41.03
2018-11-27T19:31:19.148Z,40.20
2018-11-27T19:33:47.788Z,43.70
2018-11-27T19:36:16.553Z,40.97
2018-11-27T19:38:45.493Z,38.03
2018-11-27T19:41:14.314Z,41.70
2018-11-27T19:43:42.982Z,39.80
2018-11-27T19:46:11.927Z,39.17
2018-11-27T19:48:40.571Z,39.93
2018-11-27T19:51:09.552Z,39.70
2018-11-27T19:53:39.214Z,39.63
2018-11-27T19:56:07.102Z,39.50
2018-11-27T19:58:35.960Z,41.33
2018-11-27T20:01:04.712Z,41.90
2018-11-27T20:03:33.540Z,40.87
2018-11-27T20:06:02.396Z,42.03
2018-11-27T20:08:31.166Z,43.17
2018-11-27T20:10:59.857Z,39.20
2018-11-27T20:13:28.607Z,39.63
2018-11-27T20:15:57.344Z,44.53
2018-11-27T20:18:26.266Z,40.93
2018-11-27T20:20:55.030Z,43.07
2018-11-27T20:23:23.697Z,41.97
2018-11-27T20:25:52.780Z,40.73
2018-11-27T20:28:21.570Z,41.53
2018-11-27T20:30:50.306Z,42.03
2018-11-27T20:33:19.023Z,38.07
2018-11-27T20:35:47.705Z,43.37
2018-11-27T20:38:16.360Z,38.97
2018-11-27T20:40:45.143Z,40.37
2018-11-27T20:43:13.880Z,41.23
2018-11-27T20:45:42.499Z,39.70
2018-11-27T20:48:16.601Z,43.27
2018-11-27T20:50:46.753Z,36.33
2018-11-27T20:53:15.454Z,38.07
2018-11-27T20:55:44.176Z,40.53
2018-11-27T20:58:12.893Z,36.93
2018-11-27T21:00:42.971Z,38.47
2018-11-27T21:03:12.529Z,35.43
2018-11-27T21:05:41.348Z,39.23
2018-11-27T21:08:10.160Z,39.27
2018-11-27T21:10:39.454Z,42.03
2018-11-27T21:13:09.487Z,39.00
2018-11-27T21:15:39.026Z,44.43
2018-11-27T21:18:08.666Z,43.07
2018-11-27T21:20:37.339Z,37.90
2018-11-27T21:23:06.124Z,39.90
2018-11-27T21:25:34.853Z,40.30
2018-11-27T21:28:10.761Z,45.47
2018-11-27T21:30:39.544Z,40.93
2018-11-27T21:33:08.278Z,41.60
2018-11-27T21:35:37.155Z,44.00
2018-11-27T21:38:06.453Z,39.17
2018-11-27T21:40:36.075Z,40.20
2018-11-27T21:43:05.056Z,38.47
2018-11-27T21:45:33.865Z,38.50
2018-11-27T21:48:02.729Z,41.03
2018-11-27T21:50:36.507Z,51.60
2018-11-27T21:53:05.349Z,41.30
2018-11-27T21:55:34.023Z,38.80
2018-11-27T21:58:02.663Z,44.23
2018-11-27T22:00:31.641Z,39.33
2018-11-27T22:03:00.370Z,43.30
2018-11-27T22:05:29.110Z,39.63
2018-11-27T22:07:58.438Z,37.83
2018-11-27T22:10:27.224Z,39.63
2018-11-27T22:12:57.403Z,41.40
2018-11-27T22:15:29.777Z,42.77
2018-11-27T22:17:58.549Z,38.40
2018-11-27T22:20:27.345Z,47.00
2018-11-27T22:22:56.077Z,45.80
2018-11-27T22:25:24.833Z,44.30
2018-11-27T22:27:53.502Z,42.07
2018-11-27T22:30:22.284Z,39.30
2018-11-27T22:32:52.309Z,41.90
2018-11-27T22:35:21.060Z,40.03
2018-11-27T22:37:49.743Z,42.37
2018-11-27T22:40:20.773Z,48.23
2018-11-27T22:42:49.921Z,44.50
2018-11-27T22:45:24.807Z,43.50
2018-11-27T22:47:53.547Z,41.87
2018-11-27T22:50:22.272Z,38.13
2018-11-27T22:52:50.950Z,43.03
2018-11-27T22:55:19.909Z,42.90
2018-11-27T22:57:48.607Z,40.50
2018-11-27T23:00:28.279Z,41.93
2018-11-27T23:02:57.098Z,42.53
2018-11-27T23:05:26.000Z,46.90
2018-11-27T23:07:54.708Z,40.70
2018-11-27T23:10:23.499Z,40.60
2018-11-27T23:12:52.259Z,43.70
2018-11-27T23:15:21.699Z,40.07
2018-11-27T23:17:50.382Z,43.13
2018-11-27T23:20:19.635Z,45.40
2018-11-27T23:22:48.249Z,46.23
2018-11-27T23:25:18.128Z,40.97
2018-11-27T23:27:46.845Z,40.83
2018-11-27T23:30:20.852Z,42.43
2018-11-27T23:32:49.680Z,38.80
2018-11-27T23:35:18.660Z,39.77
2018-11-27T23:37:47.628Z,41.07
2018-11-27T23:40:17.645Z,43.03
2018-11-27T23:42:46.822Z,43.73
2018-11-27T23:45:18.804Z,41.90
2018-11-27T23:47:47.552Z,42.93
2018-11-27T23:50:17.648Z,42.00
2018-11-27T23:52:46.463Z,43.03
2018-11-27T23:55:16.491Z,39.87
2018-11-27T23:57:45.954Z,35.40
